Time;durP1;ratioP1;P1;durP2;ratioP2;P2;SDS_P1;SDS_P2;PMS_P1;PMS_P2;Temp;Humidity;BMP_temperature;BMP_pressure;BME280_temperature;BME280_humidity;BME280_pressure;Samples;Min_cycle;Max_cycle;Signal;HPM_P1;HPM_P2
2022/08/17 00:00:33;;;;;;;12.37;9.40;;;;;;;;;;5053124;28;20464;-52
2022/08/17 00:03:02;;;;;;;10.70;9.70;;;;;;;;;;5038397;28;20460;-52
2022/08/17 00:05:30;;;;;;;14.87;10.57;;;;;;;;;;5034252;28;20417;-52
2022/08/17 00:07:56;;;;;;;10.53;9.53;;;;;;;;;;5033250;28;20957;-51
2022/08/17 00:10:22;;;;;;;13.33;9.63;;;;;;;;;;5034398;28;20468;-52
2022/08/17 00:12:48;;;;;;;12.37;10.67;;;;;;;;;;5038209;28;21023;-52
2022/08/17 00:15:15;;;;;;;11.60;10.47;;;;;;;;;;5041933;28;20578;-52
2022/08/17 00:17:41;;;;;;;11.83;9.80;;;;;;;;;;5039082;28;20430;-52
2022/08/17 00:20:08;;;;;;;10.97;9.87;;;;;;;;;;5041165;28;20417;-51
2022/08/17 00:22:34;;;;;;;12.87;10.40;;;;;;;;;;5050790;28;20477;-52
2022/08/17 00:25:00;;;;;;;13.40;10.00;;;;;;;;;;5034014;28;20508;-52
2022/08/17 00:27:26;;;;;;;15.73;10.83;;;;;;;;;;5034330;28;20519;-52
2022/08/17 00:29:52;;;;;;;11.20;10.00;;;;;;;;;;5051665;28;20523;-52
2022/08/17 00:32:18;;;;;;;12.00;9.80;;;;;;;;;;5052389;28;21140;-51
2022/08/17 00:34:44;;;;;;;14.53;10.10;;;;;;;;;;5033708;28;20444;-52
2022/08/17 00:37:10;;;;;;;10.97;9.63;;;;;;;;;;5038199;28;20446;-52
2022/08/17 00:39:36;;;;;;;11.80;10.33;;;;;;;;;;5040738;28;20421;-52
2022/08/17 00:42:11;;;;;;;12.00;10.80;;;;;;;;;;5046206;28;20424;-52
2022/08/17 00:44:37;;;;;;;12.73;11.43;;;;;;;;;;5040021;28;20471;-51
2022/08/17 00:47:03;;;;;;;11.80;10.20;;;;;;;;;;5053011;28;20413;-52
2022/08/17 00:49:30;;;;;;;14.87;10.30;;;;;;;;;;5053001;28;20963;-52
2022/08/17 00:51:59;;;;;;;17.77;10.80;;;;;;;;;;5034034;28;20409;-51
2022/08/17 00:54:28;;;;;;;12.83;10.63;;;;;;;;;;5049801;28;20909;-51
2022/08/17 00:56:56;;;;;;;11.70;10.23;;;;;;;;;;5050103;28;20444;-51
2022/08/17 00:59:24;;;;;;;13.00;11.30;;;;;;;;;;5034550;28;20448;-51
2022/08/17 01:01:51;;;;;;;15.63;10.23;;;;;;;;;;5047330;28;20432;-51
2022/08/17 01:04:20;;;;;;;13.43;10.83;;;;;;;;;;5036203;28;20798;-51
2022/08/17 01:06:48;;;;;;;13.13;10.80;;;;;;;;;;5032447;28;20445;-51
2022/08/17 01:09:15;;;;;;;11.20;9.60;;;;;;;;;;5032827;28;20849;-52
2022/08/17 01:11:41;;;;;;;12.77;10.27;;;;;;;;;;5032137;28;20409;-51
2022/08/17 01:14:07;;;;;;;12.97;10.07;;;;;;;;;;5042287;28;20456;-51
2022/08/17 01:16:34;;;;;;;14.17;10.07;;;;;;;;;;5043276;28;20426;-51
2022/08/17 01:19:01;;;;;;;11.27;10.10;;;;;;;;;;5032759;28;20416;-52
2022/08/17 01:21:30;;;;;;;16.40;11.00;;;;;;;;;;5047774;28;20416;-51
2022/08/17 01:23:56;;;;;;;14.17;10.40;;;;;;;;;;5051648;28;20920;-51
2022/08/17 01:26:22;;;;;;;11.13;9.90;;;;;;;;;;5033986;28;20890;-51
2022/08/17 01:28:49;;;;;;;12.97;10.30;;;;;;;;;;5036878;28;20496;-51
2022/08/17 01:31:15;;;;;;;12.53;11.23;;;;;;;;;;5044973;28;20917;-51
2022/08/17 01:33:42;;;;;;;12.57;11.27;;;;;;;;;;5042639;28;20459;-51
2022/08/17 01:36:08;;;;;;;15.50;11.80;;;;;;;;;;5035711;28;20417;-51
2022/08/17 01:38:35;;;;;;;14.00;10.50;;;;;;;;;;5032471;28;20436;-51
2022/08/17 01:41:04;;;;;;;17.73;10.90;;;;;;;;;;5046673;28;20412;-51
2022/08/17 01:43:42;;;;;;;15.33;10.67;;;;;;;;;;5043460;28;20425;-51
2022/08/17 01:46:09;;;;;;;16.27;11.33;;;;;;;;;;5032232;28;20417;-51
2022/08/17 01:48:39;;;;;;;13.83;11.60;;;;;;;;;;5032297;28;20467;-51
2022/08/17 01:51:06;;;;;;;11.63;10.60;;;;;;;;;;5043978;28;20922;-50
2022/08/17 01:53:34;;;;;;;15.93;11.90;;;;;;;;;;5043837;28;20455;-51
2022/08/17 01:56:08;;;;;;;14.63;12.10;;;;;;;;;;5040614;28;20513;-50
2022/08/17 01:58:35;;;;;;;13.23;11.93;;;;;;;;;;5050632;28;20966;-50
2022/08/17 02:01:01;;;;;;;14.27;11.50;;;;;;;;;;5042207;28;20428;-52
2022/08/17 02:03:27;;;;;;;17.60;12.33;;;;;;;;;;5034115;28;20415;-51
2022/08/17 02:05:53;;;;;;;19.73;12.60;;;;;;;;;;5046204;28;20909;-50
2022/08/17 02:08:20;;;;;;;17.10;13.20;;;;;;;;;;5051359;28;20860;-50
2022/08/17 02:10:47;;;;;;;23.03;16.37;;;;;;;;;;5035967;28;20498;-50
2022/08/17 02:13:13;;;;;;;18.33;14.47;;;;;;;;;;5037284;28;20482;-50
2022/08/17 02:15:40;;;;;;;23.43;13.90;;;;;;;;;;5042886;28;20887;-50
2022/08/17 02:18:06;;;;;;;15.33;13.60;;;;;;;;;;5031325;28;20451;-52
2022/08/17 02:20:32;;;;;;;15.40;12.07;;;;;;;;;;5042014;28;20913;-51
2022/08/17 02:23:02;;;;;;;19.00;12.80;;;;;;;;;;5048663;28;20435;-51
2022/08/17 02:25:29;;;;;;;22.10;13.17;;;;;;;;;;5031173;28;20473;-50
2022/08/17 02:27:55;;;;;;;14.20;12.60;;;;;;;;;;5047660;28;20442;-51
2022/08/17 02:30:21;;;;;;;16.93;13.03;;;;;;;;;;5041111;28;20428;-51
2022/08/17 02:32:47;;;;;;;16.20;12.83;;;;;;;;;;5040178;28;20459;-51
2022/08/17 02:35:13;;;;;;;16.40;11.60;;;;;;;;;;5050994;28;20416;-50
2022/08/17 02:37:42;;;;;;;14.67;11.33;;;;;;;;;;5047019;28;20517;-50
2022/08/17 02:40:09;;;;;;;15.97;12.00;;;;;;;;;;5036584;28;20410;-51
2022/08/17 02:42:37;;;;;;;14.17;12.70;;;;;;;;;;5048606;28;20868;-51
2022/08/17 02:45:04;;;;;;;14.53;12.30;;;;;;;;;;5039039;28;20417;-50
2022/08/17 02:47:30;;;;;;;15.20;13.27;;;;;;;;;;5051315;28;20995;-50
2022/08/17 02:49:56;;;;;;;16.50;11.33;;;;;;;;;;5043816;28;20522;-51
2022/08/17 02:52:24;;;;;;;12.70;11.40;;;;;;;;;;5035138;28;20457;-51
2022/08/17 02:54:50;;;;;;;13.60;12.30;;;;;;;;;;5032881;28;20417;-50
2022/08/17 02:57:16;;;;;;;16.53;12.63;;;;;;;;;;5051015;28;20434;-50
2022/08/17 02:59:42;;;;;;;13.57;12.17;;;;;;;;;;5045842;28;20422;-50
2022/08/17 03:02:10;;;;;;;12.97;11.67;;;;;;;;;;5030813;28;20442;-50
2022/08/17 03:04:36;;;;;;;12.40;11.10;;;;;;;;;;5044503;28;20502;-50
2022/08/17 03:07:03;;;;;;;12.97;11.70;;;;;;;;;;5040723;28;20918;-50
2022/08/17 03:09:29;;;;;;;14.70;13.20;;;;;;;;;;5032795;28;20411;-50
2022/08/17 03:12:02;;;;;;;13.97;12.57;;;;;;;;;;5043870;28;20769;-50
2022/08/17 03:14:30;;;;;;;13.23;11.93;;;;;;;;;;5040807;28;20503;-50
2022/08/17 03:16:56;;;;;;;11.83;10.83;;;;;;;;;;5047134;28;20431;-50
2022/08/17 03:19:22;;;;;;;13.37;12.07;;;;;;;;;;5050215;28;20772;-51
2022/08/17 03:21:48;;;;;;;13.13;10.80;;;;;;;;;;5047228;28;20410;-50
2022/08/17 03:24:14;;;;;;;11.90;10.70;;;;;;;;;;5038937;28;20512;-50
2022/08/17 03:26:40;;;;;;;14.10;11.97;;;;;;;;;;5032635;28;20437;-50
2022/08/17 03:29:06;;;;;;;12.70;11.50;;;;;;;;;;5031591;28;20796;-50
2022/08/17 03:31:32;;;;;;;13.47;12.27;;;;;;;;;;5031017;28;20842;-50
2022/08/17 03:33:58;;;;;;;13.30;12.00;;;;;;;;;;5041076;28;21023;-50
2022/08/17 03:36:24;;;;;;;13.80;12.43;;;;;;;;;;5043394;28;20956;-51
2022/08/17 03:38:50;;;;;;;13.53;11.80;;;;;;;;;;5044601;28;20415;-50
2022/08/17 03:41:16;;;;;;;13.37;11.97;;;;;;;;;;5037777;28;20415;-50
2022/08/17 03:43:42;;;;;;;14.73;11.73;;;;;;;;;;5041250;28;20467;-51
2022/08/17 03:57:07;;;;;;;13.43;12.13;;;;;;;;;;5050617;28;20445;-50
2022/08/17 03:59:34;;;;;;;13.83;11.83;;;;;;;;;;5053619;28;20404;-51
2022/08/17 04:02:33;;;;;;;15.00;12.37;;;;;;;;;;5052495;28;20850;-50
2022/08/17 04:05:00;;;;;;;16.00;13.43;;;;;;;;;;5038514;28;20785;-49
2022/08/17 04:07:27;;;;;;;13.60;12.20;;;;;;;;;;5034098;28;20514;-50
2022/08/17 04:09:53;;;;;;;18.13;12.00;;;;;;;;;;5033974;28;20490;-50
2022/08/17 04:12:20;;;;;;;12.20;10.87;;;;;;;;;;5046997;28;20495;-50
2022/08/17 04:14:46;;;;;;;13.50;12.07;;;;;;;;;;5053969;28;20402;-51
2022/08/17 04:17:12;;;;;;;13.90;11.60;;;;;;;;;;5033701;28;20965;-50
2022/08/17 04:19:38;;;;;;;14.03;11.67;;;;;;;;;;5034398;28;20431;-50
2022/08/17 04:22:04;;;;;;;12.93;11.70;;;;;;;;;;5033363;28;20817;-51
2022/08/17 04:24:31;;;;;;;15.40;11.20;;;;;;;;;;5048699;28;20441;-50
2022/08/17 04:26:57;;;;;;;13.30;12.00;;;;;;;;;;5053696;28;20471;-51
2022/08/17 04:29:24;;;;;;;15.20;12.10;;;;;;;;;;5039617;28;20412;-50
2022/08/17 04:31:51;;;;;;;15.43;12.13;;;;;;;;;;5032699;28;20442;-50
2022/08/17 04:34:17;;;;;;;14.87;12.53;;;;;;;;;;5045266;28;20436;-50
2022/08/17 04:36:43;;;;;;;14.80;13.30;;;;;;;;;;5053506;28;20394;-50
2022/08/17 04:39:09;;;;;;;17.00;12.40;;;;;;;;;;5041505;28;20760;-50
2022/08/17 04:44:20;;;;;;;16.47;12.43;;;;;;;;;;5053258;28;20901;-50
2022/08/17 04:46:46;;;;;;;17.13;13.10;;;;;;;;;;5034680;28;20427;-50
2022/08/17 04:49:13;;;;;;;14.93;13.27;;;;;;;;;;5044311;28;20986;-50
2022/08/17 04:51:45;;;;;;;13.93;12.17;;;;;;;;;;5031636;28;20489;-50
2022/08/17 04:54:13;;;;;;;20.57;12.80;;;;;;;;;;5033119;28;20487;-51
2022/08/17 04:56:39;;;;;;;12.77;11.43;;;;;;;;;;5033678;28;20419;-51
2022/08/17 04:59:07;;;;;;;16.30;12.67;;;;;;;;;;5033229;28;20438;-51
2022/08/17 05:01:35;;;;;;;12.37;11.27;;;;;;;;;;5032465;28;21223;-50
2022/08/17 05:04:08;;;;;;;14.10;12.23;;;;;;;;;;5033055;28;20452;-50
2022/08/17 05:06:34;;;;;;;12.17;10.70;;;;;;;;;;5033054;28;20449;-50
2022/08/17 05:09:01;;;;;;;13.50;11.57;;;;;;;;;;5033010;28;20418;-50
2022/08/17 05:11:27;;;;;;;13.33;12.03;;;;;;;;;;5032977;28;20515;-51
2022/08/17 05:13:54;;;;;;;13.57;12.17;;;;;;;;;;5032892;28;20978;-51
2022/08/17 05:16:21;;;;;;;14.63;11.97;;;;;;;;;;5032753;28;20398;-50
2022/08/17 05:18:47;;;;;;;26.27;12.47;;;;;;;;;;5032722;28;20431;-51
2022/08/17 05:21:14;;;;;;;16.50;12.60;;;;;;;;;;5032147;28;20889;-50
2022/08/17 05:23:40;;;;;;;15.93;13.10;;;;;;;;;;5032725;28;20402;-51
2022/08/17 05:26:06;;;;;;;15.53;12.20;;;;;;;;;;5032652;28;20452;-50
2022/08/17 05:28:32;;;;;;;16.50;12.60;;;;;;;;;;5032646;28;20926;-50
2022/08/17 05:31:00;;;;;;;15.80;11.87;;;;;;;;;;5031922;28;20405;-51
2022/08/17 05:33:31;;;;;;;14.40;12.17;;;;;;;;;;5032551;28;20464;-50
2022/08/17 05:35:58;;;;;;;17.30;13.13;;;;;;;;;;5031739;28;20431;-50
2022/08/17 05:38:26;;;;;;;15.97;11.87;;;;;;;;;;5052099;28;20431;-51
2022/08/17 05:40:53;;;;;;;12.80;11.50;;;;;;;;;;5051705;28;20405;-51
2022/08/17 05:43:24;;;;;;;12.47;11.37;;;;;;;;;;5052537;28;20521;-50
2022/08/17 05:45:53;;;;;;;13.60;12.13;;;;;;;;;;5052273;28;20423;-50
2022/08/17 05:48:19;;;;;;;17.63;12.07;;;;;;;;;;5052171;28;20423;-50
2022/08/17 05:51:04;;;;;;;12.77;11.47;;;;;;;;;;5051511;28;20418;-51
2022/08/17 05:53:37;;;;;;;13.00;11.80;;;;;;;;;;5052086;28;20681;-50
2022/08/17 05:56:09;;;;;;;15.13;12.37;;;;;;;;;;5052079;28;20481;-51
2022/08/17 05:58:40;;;;;;;13.37;11.07;;;;;;;;;;5052026;28;20420;-50
2022/08/17 06:01:06;;;;;;;18.57;11.40;;;;;;;;;;5050383;28;20862;-50
2022/08/17 06:03:51;;;;;;;15.07;11.30;;;;;;;;;;5034621;28;20524;-51
2022/08/17 06:06:35;;;;;;;16.80;11.70;;;;;;;;;;5051873;28;20420;-51
2022/08/17 06:09:11;;;;;;;13.30;10.80;;;;;;;;;;5051973;28;20412;-51
2022/08/17 06:11:37;;;;;;;12.57;10.83;;;;;;;;;;5051213;28;20401;-51
2022/08/17 06:14:09;;;;;;;12.00;9.93;;;;;;;;;;5051575;28;20975;-52
2022/08/17 06:16:38;;;;;;;12.33;11.10;;;;;;;;;;5051756;28;20435;-51
2022/08/17 06:19:39;;;;;;;12.23;10.57;;;;;;;;;;5051896;28;20442;-51
2022/08/17 06:22:07;;;;;;;12.00;9.80;;;;;;;;;;5028699;28;20421;-51
2022/08/17 06:24:33;;;;;;;12.67;10.67;;;;;;;;;;5047457;28;20409;-51
2022/08/17 06:27:19;;;;;;;11.30;9.93;;;;;;;;;;5051809;28;20424;-51
2022/08/17 06:29:50;;;;;;;15.37;10.73;;;;;;;;;;5050819;28;20417;-51
2022/08/17 06:32:16;;;;;;;14.70;9.67;;;;;;;;;;5051557;28;20892;-51
2022/08/17 06:34:44;;;;;;;13.73;10.10;;;;;;;;;;5051574;28;20902;-50
2022/08/17 06:37:24;;;;;;;13.80;10.17;;;;;;;;;;5051667;28;20427;-50
2022/08/17 06:40:03;;;;;;;13.40;10.27;;;;;;;;;;5051088;28;20417;-51
2022/08/17 06:42:29;;;;;;;12.07;10.70;;;;;;;;;;5051500;28;20490;-51
2022/08/17 06:45:02;;;;;;;12.63;9.63;;;;;;;;;;5051363;28;20406;-52
2022/08/17 06:47:34;;;;;;;13.27;10.13;;;;;;;;;;5051472;28;20429;-51
2022/08/17 06:50:14;;;;;;;14.57;9.67;;;;;;;;;;5050802;28;20441;-51
2022/08/17 06:52:49;;;;;;;9.23;8.13;;;;;;;;;;5050624;28;20452;-51
2022/08/17 06:55:25;;;;;;;17.47;10.10;;;;;;;;;;5031925;28;20416;-51
2022/08/17 06:57:55;;;;;;;12.47;9.63;;;;;;;;;;5031529;28;21032;-50
2022/08/17 07:00:26;;;;;;;14.97;11.20;;;;;;;;;;5030864;28;20497;-51
2022/08/17 07:03:07;;;;;;;20.87;11.83;;;;;;;;;;5034699;28;20936;-51
2022/08/17 07:05:37;;;;;;;11.80;9.53;;;;;;;;;;5042066;28;20413;-51
2022/08/17 07:08:11;;;;;;;14.57;8.70;;;;;;;;;;5051176;28;20425;-51
2022/08/17 07:10:43;;;;;;;11.50;8.77;;;;;;;;;;5050130;28;20399;-51
2022/08/17 07:13:28;;;;;;;10.10;8.23;;;;;;;;;;5053702;28;20965;-51
2022/08/17 07:15:58;;;;;;;9.07;7.90;;;;;;;;;;5054621;28;20487;-51
2022/08/17 07:18:25;;;;;;;9.77;8.53;;;;;;;;;;5052767;28;20962;-51
2022/08/17 07:20:54;;;;;;;11.20;8.23;;;;;;;;;;5034352;28;20902;-50
2022/08/17 07:23:25;;;;;;;14.00;7.83;;;;;;;;;;5035003;28;20826;-51
2022/08/17 07:25:51;;;;;;;9.53;8.53;;;;;;;;;;5033507;28;20422;-50
2022/08/17 07:28:23;;;;;;;9.17;7.80;;;;;;;;;;5034602;28;20481;-51
2022/08/17 07:30:51;;;;;;;8.30;7.50;;;;;;;;;;5034001;28;20413;-50
2022/08/17 07:33:19;;;;;;;16.23;8.47;;;;;;;;;;5033342;28;20834;-51
2022/08/17 07:35:48;;;;;;;13.33;9.00;;;;;;;;;;5036237;28;20832;-52
2022/08/17 07:38:16;;;;;;;12.63;9.23;;;;;;;;;;5033313;28;20425;-51
2022/08/17 07:40:45;;;;;;;11.10;7.97;;;;;;;;;;5032536;28;20781;-51
2022/08/17 07:43:30;;;;;;;13.20;8.70;;;;;;;;;;5033686;28;20412;-51
2022/08/17 07:48:42;;;;;;;6.97;6.37;;;;;;;;;;5034567;28;20419;-51
2022/08/17 07:51:15;;;;;;;5.80;5.30;;;;;;;;;;5033842;28;20413;-52
2022/08/17 07:53:40;;;;;;;9.20;5.43;;;;;;;;;;5034372;28;20461;-51
2022/08/17 07:56:07;;;;;;;6.03;5.33;;;;;;;;;;5034620;28;20913;-51
2022/08/17 07:58:33;;;;;;;7.63;4.77;;;;;;;;;;5034273;28;20428;-51
2022/08/17 08:01:07;;;;;;;8.53;6.57;;;;;;;;;;5033546;28;20414;-51
2022/08/17 08:03:39;;;;;;;8.67;5.30;;;;;;;;;;5039982;28;20411;-51
2022/08/17 08:06:19;;;;;;;5.33;4.83;;;;;;;;;;5054006;28;20412;-51
2022/08/17 08:08:49;;;;;;;5.93;4.60;;;;;;;;;;5053945;28;20405;-52
2022/08/17 08:11:28;;;;;;;5.50;5.00;;;;;;;;;;5039824;28;20433;-51
2022/08/17 08:13:57;;;;;;;7.20;4.80;;;;;;;;;;5051814;28;20495;-51
2022/08/17 08:16:27;;;;;;;4.77;4.23;;;;;;;;;;5053791;28;20487;-51
2022/08/17 08:18:58;;;;;;;4.47;4.10;;;;;;;;;;5053622;28;20409;-51
2022/08/17 08:21:24;;;;;;;4.73;3.97;;;;;;;;;;5053224;28;20433;-52
2022/08/17 08:23:57;;;;;;;6.87;4.87;;;;;;;;;;5052818;28;20405;-51
2022/08/17 08:26:25;;;;;;;5.10;4.10;;;;;;;;;;5053566;28;20409;-51
2022/08/17 08:28:54;;;;;;;5.23;4.17;;;;;;;;;;5054528;28;20784;-51
2022/08/17 08:31:24;;;;;;;5.50;4.20;;;;;;;;;;5051464;28;20555;-51
2022/08/17 08:33:50;;;;;;;4.37;3.97;;;;;;;;;;5053663;28;20502;-51
2022/08/17 08:36:36;;;;;;;5.50;5.10;;;;;;;;;;5045645;28;20945;-51
2022/08/17 08:39:22;;;;;;;5.63;4.50;;;;;;;;;;5033530;28;20386;-51
2022/08/17 08:41:54;;;;;;;4.47;3.50;;;;;;;;;;5032587;28;20887;-51
2022/08/17 08:44:30;;;;;;;6.10;4.90;;;;;;;;;;5037146;28;20431;-51
2022/08/17 08:47:09;;;;;;;5.73;4.90;;;;;;;;;;5053152;28;20183;-51
2022/08/17 08:49:41;;;;;;;9.30;4.43;;;;;;;;;;5053096;28;20496;-52
2022/08/17 08:52:12;;;;;;;5.43;4.93;;;;;;;;;;5052728;28;20757;-51
2022/08/17 08:54:38;;;;;;;7.70;4.73;;;;;;;;;;5053488;28;20524;-51
2022/08/17 08:57:11;;;;;;;8.20;5.30;;;;;;;;;;5052949;28;20464;-51
2022/08/17 08:59:55;;;;;;;5.17;4.70;;;;;;;;;;5052798;28;20246;-51
2022/08/17 09:02:40;;;;;;;8.10;4.50;;;;;;;;;;5052961;28;20390;-51
2022/08/17 09:05:21;;;;;;;5.70;5.20;;;;;;;;;;5033229;28;20469;-51
2022/08/17 09:07:50;;;;;;;5.00;4.53;;;;;;;;;;5032864;28;20926;-51
2022/08/17 09:10:28;;;;;;;5.53;5.07;;;;;;;;;;5032356;28;20403;-51
2022/08/17 09:12:57;;;;;;;5.63;5.03;;;;;;;;;;5032826;28;20456;-51
2022/08/17 09:15:26;;;;;;;5.50;5.00;;;;;;;;;;5032891;28;20401;-51
2022/08/17 09:17:57;;;;;;;22.00;6.63;;;;;;;;;;5032752;28;20434;-51
2022/08/17 09:20:26;;;;;;;5.90;4.73;;;;;;;;;;5032277;28;20770;-51
2022/08/17 09:22:58;;;;;;;7.20;5.57;;;;;;;;;;5033155;28;20417;-52
2022/08/17 09:25:28;;;;;;;5.70;5.30;;;;;;;;;;5044242;28;20464;-51
2022/08/17 09:27:59;;;;;;;8.20;5.43;;;;;;;;;;5047421;28;20433;-50
2022/08/17 09:30:37;;;;;;;9.00;5.50;;;;;;;;;;5056191;28;20393;-51
2022/08/17 09:33:06;;;;;;;5.67;5.27;;;;;;;;;;5051120;28;20519;-50
2022/08/17 09:35:38;;;;;;;6.20;5.63;;;;;;;;;;5035374;28;20399;-50
2022/08/17 09:38:19;;;;;;;6.20;5.50;;;;;;;;;;5032599;28;20763;-50
2022/08/17 09:40:51;;;;;;;8.30;6.10;;;;;;;;;;5031825;28;20489;-50
2022/08/17 09:43:36;;;;;;;5.80;5.23;;;;;;;;;;5032558;28;20402;-50
2022/08/17 09:46:07;;;;;;;8.50;6.67;;;;;;;;;;5032163;28;20394;-50
2022/08/17 09:48:33;;;;;;;7.50;6.80;;;;;;;;;;5031315;28;20509;-50
2022/08/17 09:51:02;;;;;;;7.63;6.90;;;;;;;;;;5031340;28;20484;-50
2022/08/17 09:53:29;;;;;;;6.43;5.93;;;;;;;;;;5032232;28;21016;-50
2022/08/17 09:55:58;;;;;;;7.30;6.60;;;;;;;;;;5032134;28;20403;-50
2022/08/17 09:58:31;;;;;;;8.23;6.90;;;;;;;;;;5032120;28;20418;-50
2022/08/17 10:01:06;;;;;;;10.20;6.77;;;;;;;;;;5031324;28;20435;-51
2022/08/17 10:03:41;;;;;;;7.23;6.20;;;;;;;;;;5031762;28;20480;-50
2022/08/17 10:06:12;;;;;;;8.53;7.70;;;;;;;;;;5032156;28;20517;-50
2022/08/17 10:08:41;;;;;;;10.73;7.17;;;;;;;;;;5031921;28;20418;-51
2022/08/17 10:11:21;;;;;;;7.50;6.50;;;;;;;;;;5031303;28;20398;-50
2022/08/17 10:13:50;;;;;;;8.90;8.00;;;;;;;;;;5032386;28;20507;-51
2022/08/17 10:16:26;;;;;;;7.43;6.73;;;;;;;;;;5031951;28;20413;-51
2022/08/17 10:19:12;;;;;;;12.03;7.63;;;;;;;;;;5032612;28;20477;-52
2022/08/17 10:27:15;;;;;;;7.73;7.00;;;;;;;;;;5051765;28;20416;-51
2022/08/17 10:29:48;;;;;;;9.23;8.30;;;;;;;;;;5051171;28;20460;-51
2022/08/17 10:32:19;;;;;;;10.77;7.87;;;;;;;;;;5050207;28;20763;-51
2022/08/17 10:35:05;;;;;;;8.37;7.53;;;;;;;;;;5044773;28;20513;-51
2022/08/17 10:38:00;;;;;;;8.70;7.77;;;;;;;;;;5031396;28;20421;-51
2022/08/17 10:40:35;;;;;;;11.23;8.70;;;;;;;;;;5029865;28;20418;-50
2022/08/17 10:43:04;;;;;;;10.17;8.20;;;;;;;;;;5031535;28;20492;-50
2022/08/17 10:50:48;;;;;;;13.40;8.83;;;;;;;;;;5050776;23;20331;-49
2022/08/17 10:53:48;;;;;;;9.83;8.93;;;;;;;;;;4976653;28;20474;-48
2022/08/17 10:56:15;;;;;;;10.80;9.80;;;;;;;;;;4976807;28;20399;-49
2022/08/17 10:58:49;;;;;;;10.70;9.60;;;;;;;;;;4976693;28;20412;-48
2022/08/17 11:01:15;;;;;;;9.70;8.80;;;;;;;;;;4976689;28;20761;-48
2022/08/17 11:03:51;;;;;;;12.07;8.70;;;;;;;;;;4975936;28;20407;-48
2022/08/17 11:06:29;;;;;;;11.00;9.87;;;;;;;;;;4976273;28;20788;-48
2022/08/17 11:09:05;;;;;;;14.63;10.17;;;;;;;;;;4976407;28;20423;-49
2022/08/17 11:11:42;;;;;;;11.90;10.70;;;;;;;;;;4976626;28;20422;-48
2022/08/17 11:14:16;;;;;;;11.30;10.10;;;;;;;;;;4977523;28;20465;-48
2022/08/17 11:16:48;;;;;;;11.00;10.00;;;;;;;;;;4970378;28;20436;-47
2022/08/17 11:19:30;;;;;;;10.40;9.30;;;;;;;;;;4975319;28;20442;-51
2022/08/17 11:22:08;;;;;;;10.23;9.00;;;;;;;;;;4974823;28;20396;-48
2022/08/17 11:24:35;;;;;;;9.50;8.60;;;;;;;;;;4965175;28;20929;-47
2022/08/17 11:27:04;;;;;;;12.80;9.80;;;;;;;;;;4965740;28;20493;-49
2022/08/17 11:29:36;;;;;;;10.40;9.50;;;;;;;;;;4963312;28;20457;-48
2022/08/17 11:32:12;;;;;;;10.37;9.40;;;;;;;;;;4964114;28;20426;-47
2022/08/17 11:34:39;;;;;;;10.80;9.70;;;;;;;;;;4956368;28;20518;-49
2022/08/17 11:37:20;;;;;;;12.37;9.80;;;;;;;;;;4956412;29;20768;-48
2022/08/17 11:39:54;;;;;;;11.27;10.10;;;;;;;;;;4956301;29;20728;-48
2022/08/17 11:42:36;;;;;;;10.80;9.80;;;;;;;;;;4956676;29;20440;-48
2022/08/17 11:45:22;;;;;;;10.50;9.40;;;;;;;;;;4963060;28;20829;-48
2022/08/17 11:53:38;;;;;;;13.70;10.60;;;;;;;;;;4956211;29;20910;-49
2022/08/17 11:56:08;;;;;;;11.60;10.47;;;;;;;;;;4956327;28;20421;-48
2022/08/17 11:58:36;;;;;;;11.70;10.60;;;;;;;;;;4956488;28;20423;-50
2022/08/17 12:01:20;;;;;;;23.93;12.27;;;;;;;;;;4973813;28;20435;-48
2022/08/17 12:03:47;;;;;;;14.27;11.30;;;;;;;;;;4956462;29;20905;-48
2022/08/17 12:06:32;;;;;;;13.60;12.30;;;;;;;;;;4956034;29;20409;-48
2022/08/17 12:09:05;;;;;;;13.37;12.23;;;;;;;;;;4955856;28;20433;-47
2022/08/17 12:11:41;;;;;;;15.43;11.63;;;;;;;;;;4956137;29;20415;-49
2022/08/17 12:14:08;;;;;;;12.37;11.17;;;;;;;;;;4955931;29;20515;-49
2022/08/17 12:16:34;;;;;;;15.13;11.37;;;;;;;;;;4955687;29;20497;-48
2022/08/17 12:19:01;;;;;;;14.07;11.60;;;;;;;;;;4955548;28;20457;-49
2022/08/17 12:21:27;;;;;;;18.17;11.07;;;;;;;;;;4955812;29;20489;-49
2022/08/17 12:24:12;;;;;;;13.00;11.70;;;;;;;;;;4955929;29;20494;-48
2022/08/17 12:26:39;;;;;;;11.00;10.20;;;;;;;;;;4955715;29;20410;-48
2022/08/17 12:29:13;;;;;;;13.77;12.37;;;;;;;;;;4966332;28;20523;-48
2022/08/17 12:31:53;;;;;;;20.97;15.50;;;;;;;;;;4974944;28;20452;-49
2022/08/17 12:34:26;;;;;;;16.90;13.87;;;;;;;;;;4974965;28;20991;-48
2022/08/17 12:36:57;;;;;;;12.53;11.30;;;;;;;;;;4974512;28;20751;-48
2022/08/17 12:39:25;;;;;;;15.60;13.93;;;;;;;;;;4974528;28;20427;-49
2022/08/17 12:41:52;;;;;;;15.87;12.80;;;;;;;;;;4975275;28;20930;-49
2022/08/17 12:44:26;;;;;;;16.43;14.83;;;;;;;;;;4974728;28;20799;-48
2022/08/17 12:46:53;;;;;;;17.50;13.33;;;;;;;;;;4974744;28;20496;-47
2022/08/17 12:49:41;;;;;;;14.40;11.70;;;;;;;;;;4967822;28;20882;-49
2022/08/17 12:52:19;;;;;;;13.93;12.70;;;;;;;;;;4974368;28;20540;-50
2022/08/17 12:54:56;;;;;;;13.77;12.43;;;;;;;;;;4972950;28;20453;-49
2022/08/17 12:57:45;;;;;;;13.13;11.93;;;;;;;;;;4972980;28;20918;-48
2022/08/17 13:00:16;;;;;;;13.70;11.10;;;;;;;;;;4964102;28;20951;-50
2022/08/17 13:02:42;;;;;;;20.27;15.50;;;;;;;;;;4973882;28;20416;-49
2022/08/17 13:05:16;;;;;;;14.07;12.20;;;;;;;;;;4973837;28;20403;-48
2022/08/17 13:07:45;;;;;;;20.27;16.87;;;;;;;;;;4974044;28;20440;-48
2022/08/17 13:10:20;;;;;;;13.77;12.57;;;;;;;;;;4973611;28;20425;-49
2022/08/17 13:12:48;;;;;;;15.83;14.43;;;;;;;;;;4974047;28;20467;-50
2022/08/17 13:15:22;;;;;;;18.80;16.83;;;;;;;;;;4974005;28;20949;-49
2022/08/17 13:17:55;;;;;;;11.63;10.63;;;;;;;;;;4974096;28;20404;-49
2022/08/17 13:20:21;;;;;;;13.93;12.70;;;;;;;;;;4973092;28;20476;-50
2022/08/17 13:22:55;;;;;;;15.80;14.23;;;;;;;;;;4974000;28;20426;-49
2022/08/17 13:25:22;;;;;;;13.33;12.03;;;;;;;;;;4972681;28;20834;-49
2022/08/17 13:27:49;;;;;;;14.77;13.37;;;;;;;;;;4972638;28;20439;-49
2022/08/17 13:30:20;;;;;;;14.83;10.17;;;;;;;;;;4972729;28;20512;-47
2022/08/17 13:32:46;;;;;;;11.90;10.87;;;;;;;;;;4972506;28;20523;-47
2022/08/17 13:35:32;;;;;;;9.93;9.03;;;;;;;;;;4973825;28;20784;-47
2022/08/17 13:38:00;;;;;;;11.47;10.57;;;;;;;;;;4974061;28;20492;-49
2022/08/17 13:40:28;;;;;;;13.10;11.53;;;;;;;;;;4973441;28;20492;-47
2022/08/17 13:42:55;;;;;;;13.60;12.20;;;;;;;;;;4973644;28;20412;-47
2022/08/17 13:45:30;;;;;;;12.77;11.50;;;;;;;;;;4973631;28;20923;-49
2022/08/17 13:48:06;;;;;;;11.60;10.80;;;;;;;;;;4972513;28;20412;-47
2022/08/17 13:50:32;;;;;;;13.30;12.20;;;;;;;;;;4968627;28;20947;-48
2022/08/17 13:52:58;;;;;;;11.40;10.40;;;;;;;;;;4971927;28;20472;-47
2022/08/17 13:55:24;;;;;;;12.40;10.73;;;;;;;;;;4973367;28;20788;-48
2022/08/17 13:57:52;;;;;;;12.93;11.63;;;;;;;;;;4972562;28;20433;-47
2022/08/17 14:00:31;;;;;;;11.43;10.53;;;;;;;;;;4973209;28;20497;-47
2022/08/17 14:02:57;;;;;;;12.67;11.47;;;;;;;;;;4973197;28;20397;-47
2022/08/17 14:05:24;;;;;;;16.07;13.97;;;;;;;;;;4973265;28;20735;-47
2022/08/17 14:07:54;;;;;;;16.30;14.63;;;;;;;;;;4973303;28;20409;-48
2022/08/17 14:10:19;;;;;;;14.60;13.10;;;;;;;;;;4972913;28;20417;-47
2022/08/17 14:12:46;;;;;;;17.40;15.83;;;;;;;;;;4973520;28;20463;-50
2022/08/17 14:15:13;;;;;;;14.83;13.53;;;;;;;;;;4973141;28;20511;-49
2022/08/17 14:17:39;;;;;;;13.27;12.00;;;;;;;;;;4973174;28;20963;-51
2022/08/17 14:20:08;;;;;;;13.47;12.17;;;;;;;;;;4972817;28;20425;-49
2022/08/17 14:22:35;;;;;;;17.03;14.60;;;;;;;;;;4972566;28;20873;-50
2022/08/17 14:25:01;;;;;;;15.17;13.60;;;;;;;;;;4972999;28;20400;-49
2022/08/17 14:27:30;;;;;;;13.17;12.07;;;;;;;;;;4972007;28;20444;-48
2022/08/17 14:29:56;;;;;;;15.80;14.13;;;;;;;;;;4972728;28;20816;-48
2022/08/17 14:32:24;;;;;;;17.17;15.70;;;;;;;;;;4973024;28;20948;-50
2022/08/17 14:34:51;;;;;;;15.23;13.43;;;;;;;;;;4971417;28;20456;-49
2022/08/17 14:37:17;;;;;;;10.93;10.03;;;;;;;;;;4972917;28;20404;-48
2022/08/17 14:39:43;;;;;;;16.10;14.70;;;;;;;;;;4972655;28;20421;-49
2022/08/17 14:42:10;;;;;;;13.87;12.50;;;;;;;;;;4972880;28;20433;-50
2022/08/17 14:44:37;;;;;;;10.83;9.87;;;;;;;;;;4972702;28;20429;-49
2022/08/17 14:47:03;;;;;;;12.10;10.80;;;;;;;;;;4973283;28;20428;-49
2022/08/17 14:49:30;;;;;;;14.87;13.47;;;;;;;;;;4972466;28;20943;-49
2022/08/17 14:51:56;;;;;;;16.27;14.57;;;;;;;;;;4973027;28;20861;-49
2022/08/17 14:54:22;;;;;;;14.70;13.47;;;;;;;;;;4972856;28;20889;-49
2022/08/17 14:56:48;;;;;;;21.70;19.53;;;;;;;;;;4971737;28;20468;-48
2022/08/17 14:59:15;;;;;;;18.60;15.70;;;;;;;;;;4972197;28;20449;-49
2022/08/17 15:01:41;;;;;;;18.30;16.40;;;;;;;;;;4972790;28;20173;-49
2022/08/17 15:04:08;;;;;;;22.93;19.37;;;;;;;;;;4972955;28;20404;-48
2022/08/17 15:06:33;;;;;;;21.20;19.00;;;;;;;;;;4972720;28;20471;-49
2022/08/17 15:09:01;;;;;;;23.90;21.60;;;;;;;;;;4972534;28;20437;-49
2022/08/17 15:11:27;;;;;;;22.07;19.60;;;;;;;;;;4972701;28;20409;-49
2022/08/17 15:13:53;;;;;;;20.10;17.90;;;;;;;;;;4972538;28;20452;-48